Time;durP1;ratioP1;P1;durP2;ratioP2;P2;SDS_P1;SDS_P2;PMS_P1;PMS_P2;Temp;Humidity;BMP_temperature;BMP_pressure;BME280_temperature;BME280_humidity;BME280_pressure;Samples;Min_cycle;Max_cycle;Signal;HPM_P1;HPM_P2
2021/08/02 00:01:34;;;;;;;8.85;2.05;;;;;;;12.56;72.54;99576.78;4972038;28;20122;-65
2021/08/02 00:04:02;;;;;;;7.43;2.40;;;;;;;12.48;73.35;99580.75;4965638;28;20027;-63
2021/08/02 00:06:42;;;;;;;7.70;2.30;;;;;;;12.43;73.07;99578.84;4968137;28;20053;-63
2021/08/02 00:09:08;;;;;;;8.95;2.40;;;;;;;12.36;73.16;99583.63;4948906;28;20046;-64
2021/08/02 00:11:39;;;;;;;13.73;2.60;;;;;;;12.35;73.64;99579.31;4972107;28;20042;-64
2021/08/02 00:14:08;;;;;;;6.75;2.33;;;;;;;12.39;74.09;99582.31;4960063;28;20030;-63
2021/08/02 00:16:36;;;;;;;10.20;2.25;;;;;;;12.38;73.91;99586.91;4970269;28;20090;-64
2021/08/02 00:19:02;;;;;;;26.15;3.00;;;;;;;12.39;74.27;99593.13;4966606;28;20130;-64
2021/08/02 00:21:28;;;;;;;6.18;2.30;;;;;;;12.42;73.65;99588.03;4967433;28;20027;-64
2021/08/02 00:23:54;;;;;;;8.65;2.33;;;;;;;12.43;74.37;99584.25;4949021;28;20106;-64
2021/08/02 00:26:20;;;;;;;8.40;2.05;;;;;;;12.43;74.13;99586.13;4960188;28;20030;-63
2021/08/02 00:28:45;;;;;;;9.38;2.47;;;;;;;12.36;74.05;99589.03;4969462;28;20045;-63
2021/08/02 00:31:12;;;;;;;8.88;2.60;;;;;;;12.47;73.43;99600.75;4970691;28;20034;-63
2021/08/02 00:33:38;;;;;;;7.10;2.33;;;;;;;12.41;74.20;99590.97;4970031;28;20038;-64
2021/08/02 00:36:13;;;;;;;6.63;2.50;;;;;;;12.42;74.01;99584.50;4972787;28;20045;-64
2021/08/02 00:38:46;;;;;;;10.10;2.53;;;;;;;12.31;73.70;99589.00;4967657;28;20027;-64
2021/08/02 00:41:39;;;;;;;6.93;2.40;;;;;;;12.34;73.84;99591.19;4972398;28;20046;-64
2021/08/02 00:44:29;;;;;;;6.82;2.20;;;;;;;12.26;74.79;99591.66;4970453;28;20022;-64
2021/08/02 00:47:04;;;;;;;6.68;1.95;;;;;;;12.17;74.75;99585.09;4970158;28;20039;-64
2021/08/02 00:49:30;;;;;;;9.48;2.70;;;;;;;12.15;75.61;99585.38;4952979;28;20038;-64
2021/08/02 00:51:57;;;;;;;6.85;2.53;;;;;;;12.09;75.65;99591.78;4968899;28;20089;-64
2021/08/02 00:54:25;;;;;;;7.25;2.47;;;;;;;12.03;75.76;99590.91;4974238;28;20046;-64
2021/08/02 00:56:56;;;;;;;7.20;2.63;;;;;;;11.97;76.31;99592.75;4972889;28;20093;-64
2021/08/02 00:59:26;;;;;;;11.10;2.30;;;;;;;11.93;76.57;99591.63;4971218;28;20030;-64
2021/08/02 01:01:52;;;;;;;12.27;2.22;;;;;;;11.91;76.47;99593.75;4972800;28;20039;-64
2021/08/02 01:04:18;;;;;;;8.68;2.30;;;;;;;11.86;76.40;99591.00;4964923;28;20053;-64
2021/08/02 01:06:47;;;;;;;8.57;1.95;;;;;;;11.82;77.17;99592.59;4967651;28;20465;-64
2021/08/02 01:09:16;;;;;;;31.25;3.13;;;;;;;11.71;78.80;99595.19;4970281;28;20097;-64
2021/08/02 01:11:44;;;;;;;8.95;2.50;;;;;;;11.63;78.84;99592.09;4972749;28;20038;-64
2021/08/02 01:14:11;;;;;;;6.13;2.47;;;;;;;11.52;79.64;99591.19;4970823;28;20037;-64
2021/08/02 01:16:39;;;;;;;5.72;2.22;;;;;;;11.46;79.83;99601.09;4954001;28;20105;-64
2021/08/02 01:19:09;;;;;;;4.25;2.13;;;;;;;11.39;79.98;99600.47;4969375;28;20077;-63
2021/08/02 01:21:39;;;;;;;7.88;2.42;;;;;;;11.25;81.06;99603.56;4945952;28;20034;-64
2021/08/02 01:24:11;;;;;;;8.48;2.20;;;;;;;11.15;81.19;99600.72;4624872;28;10001127;-63
2021/08/02 01:26:43;;;;;;;10.55;2.83;;;;;;;11.12;82.29;99602.03;4967688;28;20440;-63
2021/08/02 01:29:46;;;;;;;6.10;2.55;;;;;;;11.11;81.96;99591.50;4970585;28;20431;-63
2021/08/02 01:32:16;;;;;;;8.20;2.40;;;;;;;11.02;82.49;99593.00;4953779;28;20138;-63
2021/08/02 01:34:42;;;;;;;11.30;2.70;;;;;;;10.85;83.54;99596.56;4962605;28;20046;-64
2021/08/02 01:37:07;;;;;;;6.70;2.63;;;;;;;10.78;83.90;99598.59;4971927;28;20109;-63
2021/08/02 01:39:34;;;;;;;7.03;2.55;;;;;;;10.73;84.37;99599.34;4966453;28;20033;-64
2021/08/02 01:42:01;;;;;;;8.23;2.63;;;;;;;10.71;84.80;99598.75;4968131;28;20035;-64
2021/08/02 01:44:27;;;;;;;8.15;2.50;;;;;;;10.71;84.34;99589.88;4962876;28;20511;-64
2021/08/02 01:46:55;;;;;;;6.68;2.45;;;;;;;10.66;85.11;99588.75;4957154;28;20034;-64
2021/08/02 01:49:53;;;;;;;9.10;2.72;;;;;;;10.59;85.02;99589.97;4962094;28;20047;-63
2021/08/02 01:52:26;;;;;;;7.78;2.60;;;;;;;10.51;85.67;99588.50;4962044;28;20070;-63
2021/08/02 01:55:06;;;;;;;8.00;2.38;;;;;;;10.55;86.06;99589.63;4969150;28;20114;-64
2021/08/02 01:57:53;;;;;;;7.22;2.50;;;;;;;10.50;85.45;99592.25;4969814;28;20081;-64
2021/08/02 02:00:19;;;;;;;7.70;2.78;;;;;;;10.46;86.24;99591.09;4959260;28;20187;-65
2021/08/02 02:02:54;;;;;;;6.65;2.58;;;;;;;10.44;86.82;99588.66;4959498;28;20043;-65
2021/08/02 02:05:24;;;;;;;5.22;2.63;;;;;;;10.43;87.05;99588.91;4954334;28;20038;-65
2021/08/02 02:08:07;;;;;;;6.57;2.63;;;;;;;10.31;87.29;99594.34;4965425;28;20038;-65
2021/08/02 02:10:38;;;;;;;8.13;2.67;;;;;;;10.14;87.11;99583.56;4959391;28;20409;-63
2021/08/02 02:13:09;;;;;;;9.10;2.80;;;;;;;10.06;88.53;99596.34;4954227;28;20249;-64
2021/08/02 02:15:35;;;;;;;10.27;3.15;;;;;;;10.08;88.38;99601.50;4965950;28;20073;-63
2021/08/02 02:18:02;;;;;;;9.65;2.55;;;;;;;10.04;88.30;99586.91;4958626;28;20030;-63
2021/08/02 02:20:30;;;;;;;8.43;2.75;;;;;;;9.86;87.94;99602.22;4968937;28;20035;-63
2021/08/02 02:22:56;;;;;;;9.30;2.60;;;;;;;9.72;88.29;99596.28;4960673;28;20034;-63
2021/08/02 02:25:22;;;;;;;7.88;2.95;;;;;;;9.73;89.80;99600.63;4946874;28;20045;-63
2021/08/02 02:27:47;;;;;;;12.27;3.00;;;;;;;9.78;89.32;99592.66;4970348;28;20037;-64
2021/08/02 02:30:13;;;;;;;5.72;3.10;;;;;;;9.74;89.12;99590.69;4968154;28;20100;-64
2021/08/02 02:32:39;;;;;;;6.03;3.00;;;;;;;9.63;89.40;99593.16;4963200;28;20030;-64
2021/08/02 02:35:06;;;;;;;8.95;2.80;;;;;;;9.47;89.19;99586.69;4970389;28;20066;-64
2021/08/02 02:37:32;;;;;;;6.55;3.30;;;;;;;9.42;90.10;99578.53;4967661;28;20039;-65
2021/08/02 02:39:58;;;;;;;8.52;3.38;;;;;;;9.50;90.48;99586.22;4969211;28;20118;-64
2021/08/02 02:42:26;;;;;;;11.50;2.88;;;;;;;9.53;89.96;99584.91;4973760;28;20113;-65
2021/08/02 02:44:52;;;;;;;8.02;2.67;;;;;;;9.43;90.16;99587.38;4971958;28;20038;-63
2021/08/02 02:47:19;;;;;;;7.15;2.97;;;;;;;9.47;90.35;99586.69;4967913;28;20035;-63
2021/08/02 02:49:46;;;;;;;10.40;2.92;;;;;;;9.33;89.52;99586.13;4962835;28;20168;-63
2021/08/02 02:52:14;;;;;;;6.82;2.78;;;;;;;9.27;89.90;99583.59;4959424;28;20042;-63
2021/08/02 02:54:42;;;;;;;4.82;2.60;;;;;;;9.21;90.75;99588.03;4614503;28;10001216;-63
2021/08/02 02:57:07;;;;;;;9.82;3.75;;;;;;;9.29;91.30;99576.91;4953490;28;20463;-62
2021/08/02 02:59:33;;;;;;;7.70;2.80;;;;;;;9.24;91.18;99579.50;4957588;28;20117;-62
2021/08/02 03:02:01;;;;;;;6.43;3.08;;;;;;;9.16;90.24;99575.31;4954108;28;20082;-63
2021/08/02 03:04:34;;;;;;;8.82;2.80;;;;;;;9.14;91.15;99580.13;4953662;28;20557;-63
2021/08/02 03:07:01;;;;;;;8.15;3.55;;;;;;;9.19;91.30;99577.53;4956964;28;20174;-64
2021/08/02 03:09:31;;;;;;;12.50;3.50;;;;;;;9.08;90.59;99573.00;4950739;28;20049;-64
2021/08/02 03:11:56;;;;;;;9.48;3.30;;;;;;;9.05;91.59;99576.16;4967434;28;20045;-65
2021/08/02 03:14:23;;;;;;;8.30;3.20;;;;;;;9.04;91.38;99569.16;4969171;28;20031;-62
2021/08/02 03:16:48;;;;;;;12.93;4.70;;;;;;;8.95;90.98;99568.69;4963571;28;20039;-62
2021/08/02 03:19:14;;;;;;;6.07;3.05;;;;;;;8.83;91.53;99574.06;4970994;28;20078;-62
2021/08/02 03:21:39;;;;;;;5.68;3.30;;;;;;;8.74;91.73;99570.09;4966018;28;20035;-62
2021/08/02 03:24:27;;;;;;;5.82;3.00;;;;;;;8.64;91.62;99573.41;4954765;28;20031;-62
2021/08/02 03:26:59;;;;;;;8.23;2.90;;;;;;;8.60;92.24;99566.84;4937934;28;20042;-64
2021/08/02 03:29:32;;;;;;;6.60;2.90;;;;;;;8.57;92.39;99573.50;4969424;28;20047;-64
2021/08/02 03:32:02;;;;;;;5.78;2.97;;;;;;;8.57;92.78;99575.38;4962592;28;20073;-63
2021/08/02 03:34:32;;;;;;;7.88;3.08;;;;;;;8.57;92.69;99576.19;4969528;28;20042;-63
2021/08/02 03:37:01;;;;;;;9.60;3.10;;;;;;;8.55;92.33;99574.81;4964028;28;20039;-64
2021/08/02 03:39:28;;;;;;;4.05;2.80;;;;;;;8.52;92.35;99569.91;4973451;28;20031;-63
2021/08/02 03:41:55;;;;;;;9.23;3.25;;;;;;;8.49;92.86;99581.91;4971215;28;20038;-64
2021/08/02 03:44:22;;;;;;;9.10;3.17;;;;;;;8.46;92.44;99568.91;4971889;28;20066;-63
2021/08/02 03:46:48;;;;;;;8.95;2.92;;;;;;;8.41;92.25;99572.31;4956277;28;20054;-62
2021/08/02 03:49:14;;;;;;;7.25;3.08;;;;;;;8.41;92.42;99577.69;4971723;28;20436;-62
2021/08/02 03:51:47;;;;;;;7.70;2.70;;;;;;;8.38;92.87;99567.41;4968102;28;20062;-62
2021/08/02 03:54:15;;;;;;;8.88;2.67;;;;;;;8.32;92.07;99574.50;4971728;28;20035;-62
2021/08/02 03:56:42;;;;;;;7.72;3.65;;;;;;;8.26;92.83;99563.91;4955394;28;20038;-64
2021/08/02 03:59:08;;;;;;;7.45;2.78;;;;;;;8.20;93.13;99571.00;4962018;28;20492;-64
2021/08/02 04:01:42;;;;;;;12.43;2.88;;;;;;;8.15;92.83;99562.81;4968684;28;20082;-64
2021/08/02 04:04:09;;;;;;;10.40;3.13;;;;;;;8.14;93.17;99570.06;4963609;28;20101;-62
2021/08/02 04:06:35;;;;;;;14.65;3.90;;;;;;;8.30;94.25;99570.44;4966895;28;20038;-62
2021/08/02 04:09:04;;;;;;;9.52;3.40;;;;;;;8.31;93.27;99572.88;4963865;28;20035;-62
2021/08/02 04:11:29;;;;;;;9.73;3.30;;;;;;;8.23;92.86;99567.03;4962728;28;20030;-63
2021/08/02 04:13:55;;;;;;;14.60;4.32;;;;;;;8.34;93.64;99572.41;4956492;28;20651;-64
2021/08/02 04:16:21;;;;;;;7.25;3.35;;;;;;;8.29;92.64;99572.28;4964708;28;20050;-64
2021/08/02 04:18:46;;;;;;;6.45;3.65;;;;;;;8.31;92.94;99574.75;4970702;28;20073;-63
2021/08/02 04:21:12;;;;;;;7.45;4.10;;;;;;;8.38;93.89;99571.94;4958668;28;20165;-63
2021/08/02 04:23:39;;;;;;;8.10;3.63;;;;;;;8.44;93.08;99576.38;4963589;28;20107;-63
2021/08/02 04:26:05;;;;;;;6.97;3.80;;;;;;;8.39;93.49;99581.63;4962662;28;20039;-64
2021/08/02 04:28:31;;;;;;;6.20;3.95;;;;;;;8.37;93.33;99581.88;4961922;28;20126;-64
2021/08/02 04:30:57;;;;;;;7.93;4.07;;;;;;;8.41;93.40;99583.03;4967278;28;20361;-63
2021/08/02 04:33:23;;;;;;;17.85;4.30;;;;;;;8.52;93.26;99583.31;4971973;28;20070;-63
2021/08/02 04:35:49;;;;;;;9.27;4.55;;;;;;;8.56;93.71;99582.59;4966048;28;20061;-65
2021/08/02 04:38:14;;;;;;;9.65;3.78;;;;;;;8.63;92.46;99591.34;4969281;28;20034;-62
2021/08/02 04:40:39;;;;;;;9.15;3.55;;;;;;;8.68;92.93;99593.34;4968134;28;20023;-62
2021/08/02 04:43:05;;;;;;;8.68;4.13;;;;;;;8.78;92.73;99584.69;4967918;28;20472;-64
2021/08/02 04:45:30;;;;;;;7.28;3.63;;;;;;;8.88;92.63;99592.19;4968163;28;20448;-64
2021/08/02 04:47:56;;;;;;;7.50;3.80;;;;;;;8.91;92.21;99589.84;4965896;28;20043;-64
2021/08/02 04:50:23;;;;;;;10.80;3.67;;;;;;;8.99;92.46;99582.50;4954563;28;20041;-64
2021/08/02 04:52:50;;;;;;;13.55;3.80;;;;;;;9.03;92.34;99584.44;4957195;28;20030;-64
2021/08/02 04:55:17;;;;;;;7.15;3.33;;;;;;;9.10;91.95;99586.19;4969820;28;20034;-64
2021/08/02 04:57:43;;;;;;;9.23;3.70;;;;;;;9.08;92.19;99589.94;4974216;28;20123;-62
2021/08/02 05:00:09;;;;;;;9.60;3.45;;;;;;;9.09;92.37;99582.69;4971251;28;20459;-63
2021/08/02 05:02:34;;;;;;;6.50;3.35;;;;;;;9.12;91.45;99578.72;4972234;28;20039;-63
2021/08/02 05:05:00;;;;;;;14.15;3.78;;;;;;;9.18;91.78;99578.59;4964348;28;20387;-63
2021/08/02 05:07:25;;;;;;;9.40;3.58;;;;;;;9.26;90.87;99584.66;4972275;28;20637;-62
2021/08/02 05:09:51;;;;;;;5.70;3.05;;;;;;;9.33;91.04;99590.72;4963483;28;20485;-64
2021/08/02 05:12:17;;;;;;;12.02;4.22;;;;;;;9.45;91.27;99593.34;4963442;28;20043;-63
2021/08/02 05:14:42;;;;;;;9.23;3.13;;;;;;;9.54;91.62;99588.41;4962909;28;20548;-63
2021/08/02 05:17:08;;;;;;;5.82;3.22;;;;;;;9.62;90.80;99588.03;4971020;28;20064;-63
2021/08/02 05:19:34;;;;;;;7.20;3.80;;;;;;;9.71;90.35;99599.22;4970037;28;20133;-64
2021/08/02 05:22:00;;;;;;;6.38;3.20;;;;;;;9.94;89.51;99596.44;4955945;28;20121;-63
2021/08/02 05:24:25;;;;;;;6.65;3.30;;;;;;;10.00;89.36;99602.72;4946419;28;20592;-63
2021/08/02 05:26:51;;;;;;;7.05;3.45;;;;;;;10.05;88.59;99596.63;4962441;28;20157;-63
2021/08/02 05:29:17;;;;;;;9.93;3.42;;;;;;;10.10;89.27;99592.13;4907666;28;20063;-63
2021/08/02 05:31:43;;;;;;;5.22;2.95;;;;;;;10.19;88.70;99587.16;4929644;28;20035;-63
2021/08/02 05:34:08;;;;;;;7.82;3.15;;;;;;;10.27;88.66;99590.53;4947016;28;20180;-63
2021/08/02 05:36:34;;;;;;;11.45;3.90;;;;;;;10.36;88.36;99586.38;4947863;28;20298;-63
2021/08/02 05:39:00;;;;;;;9.30;3.67;;;;;;;10.49;89.02;99598.69;4857854;28;20125;-63
2021/08/02 05:41:25;;;;;;;15.25;5.35;;;;;;;10.68;88.74;99588.47;4967370;28;20037;-63
2021/08/02 05:43:51;;;;;;;15.50;5.32;;;;;;;10.82;87.73;99586.28;4965288;28;20039;-63
2021/08/02 05:46:16;;;;;;;12.95;5.38;;;;;;;10.97;87.65;99593.75;4961561;28;20079;-64
2021/08/02 05:48:43;;;;;;;16.75;5.32;;;;;;;11.10;87.08;99597.97;4968485;28;20503;-63
2021/08/02 05:51:09;;;;;;;13.88;5.05;;;;;;;11.21;86.33;99586.25;4957704;28;20565;-63
2021/08/02 05:53:35;;;;;;;13.73;4.90;;;;;;;11.28;85.73;99583.34;4958462;28;20039;-62
2021/08/02 05:56:00;;;;;;;14.60;4.47;;;;;;;11.36;85.49;99574.81;4964963;28;20054;-65
2021/08/02 05:58:26;;;;;;;12.43;4.95;;;;;;;11.42;85.18;99583.78;4963390;28;20070;-62
2021/08/02 06:00:51;;;;;;;20.58;6.30;;;;;;;11.52;85.07;99580.41;4971660;28;20031;-62
2021/08/02 06:03:17;;;;;;;12.27;4.80;;;;;;;11.57;84.60;99583.16;4966387;28;20553;-62
2021/08/02 06:05:42;;;;;;;21.73;4.82;;;;;;;11.68;84.68;99584.06;4969420;28;20042;-64
2021/08/02 06:08:07;;;;;;;14.38;5.03;;;;;;;11.75;84.14;99586.59;4969937;28;20043;-64
2021/08/02 06:10:33;;;;;;;15.95;5.05;;;;;;;11.73;84.03;99584.13;4968791;28;20034;-64
2021/08/02 06:12:59;;;;;;;14.77;4.40;;;;;;;11.81;83.98;99580.97;4967089;28;20038;-64
2021/08/02 06:15:24;;;;;;;8.93;4.22;;;;;;;11.97;83.51;99587.34;4966798;28;20039;-64
2021/08/02 06:17:50;;;;;;;13.00;4.88;;;;;;;12.01;83.48;99579.56;4970658;28;20043;-64
2021/08/02 06:20:16;;;;;;;9.25;4.07;;;;;;;12.11;83.24;99584.25;4968632;28;20401;-65
2021/08/02 06:22:42;;;;;;;11.32;4.50;;;;;;;12.32;82.88;99584.41;4971826;28;20034;-64
2021/08/02 06:25:08;;;;;;;10.68;4.30;;;;;;;12.40;82.51;99587.47;4969201;28;20062;-65
2021/08/02 06:27:33;;;;;;;10.77;3.83;;;;;;;12.48;81.29;99583.47;4971236;28;20042;-62
2021/08/02 06:30:00;;;;;;;10.23;3.72;;;;;;;12.71;80.04;99581.44;4969936;28;20041;-62
2021/08/02 06:32:27;;;;;;;13.65;3.50;;;;;;;12.80;79.19;99579.09;4952489;28;20038;-63
2021/08/02 06:34:53;;;;;;;12.98;3.03;;;;;;;12.79;78.22;99585.56;4970846;28;20034;-63
2021/08/02 06:37:19;;;;;;;11.68;3.10;;;;;;;12.78;78.20;99583.94;4971058;28;20041;-62
2021/08/02 06:39:44;;;;;;;11.45;2.92;;;;;;;12.84;77.75;99581.00;4970446;28;20045;-63
2021/08/02 06:42:13;;;;;;;12.38;3.40;;;;;;;13.02;77.74;99576.22;4982760;28;20122;-62
2021/08/02 06:44:40;;;;;;;13.52;2.97;;;;;;;13.32;76.84;99589.06;4977072;28;20501;-64
2021/08/02 06:47:05;;;;;;;11.38;2.75;;;;;;;13.54;75.07;99576.47;4974746;28;20165;-63
2021/08/02 06:49:31;;;;;;;8.13;2.30;;;;;;;13.66;74.59;99582.44;4964982;28;20052;-63
2021/08/02 06:51:56;;;;;;;11.65;2.08;;;;;;;13.82;72.65;99577.06;4962868;28;20475;-64
2021/08/02 06:54:22;;;;;;;11.88;2.17;;;;;;;13.93;73.05;99586.84;4971595;28;20046;-64
2021/08/02 06:56:47;;;;;;;12.20;2.30;;;;;;;13.93;72.95;99573.28;4968821;28;20065;-64
2021/08/02 06:59:12;;;;;;;9.52;2.00;;;;;;;14.01;73.02;99580.06;4971127;28;20042;-65
2021/08/02 07:01:39;;;;;;;13.13;2.20;;;;;;;14.14;72.62;99578.72;4968590;28;20034;-65
2021/08/02 07:04:04;;;;;;;10.02;2.40;;;;;;;14.10;72.19;99572.22;4970923;28;20049;-62
2021/08/02 07:06:30;;;;;;;5.60;1.88;;;;;;;14.23;72.46;99577.09;4971334;28;20042;-63
2021/08/02 07:08:58;;;;;;;11.85;2.03;;;;;;;14.27;72.31;99575.47;4968810;28;20630;-63
2021/08/02 07:11:25;;;;;;;9.60;2.15;;;;;;;14.36;72.28;99573.06;4970580;28;20045;-64
2021/08/02 07:13:54;;;;;;;12.30;2.13;;;;;;;14.37;71.59;99571.97;4968331;28;20163;-64
2021/08/02 07:16:21;;;;;;;8.43;2.15;;;;;;;14.27;72.40;99577.38;4981895;28;20070;-64
2021/08/02 07:18:48;;;;;;;8.23;2.03;;;;;;;14.15;72.99;99572.22;4971961;28;20113;-64
2021/08/02 07:21:13;;;;;;;6.28;1.95;;;;;;;14.15;72.46;99572.22;4970683;28;20186;-65
2021/08/02 07:23:39;;;;;;;9.32;2.10;;;;;;;13.98;72.66;99577.88;4979333;28;20039;-65
2021/08/02 07:26:04;;;;;;;7.10;1.85;;;;;;;13.92;73.07;99568.97;4971230;28;20086;-65
2021/08/02 07:28:30;;;;;;;8.07;1.50;;;;;;;13.83;73.16;99573.28;4967146;28;20039;-64
2021/08/02 07:30:55;;;;;;;7.82;1.60;;;;;;;13.87;72.49;99575.16;4968234;28;20027;-63
2021/08/02 07:33:22;;;;;;;15.52;2.53;;;;;;;13.86;72.63;99573.53;4970209;28;20385;-63
2021/08/02 07:35:47;;;;;;;12.95;1.65;;;;;;;14.08;72.13;99567.06;4970232;28;20142;-63
2021/08/02 07:38:13;;;;;;;10.93;1.70;;;;;;;14.23;71.79;99570.88;4968116;28;20118;-63
2021/08/02 07:40:39;;;;;;;14.48;1.90;;;;;;;14.31;71.39;99573.06;4958336;28;20035;-64
2021/08/02 07:43:05;;;;;;;14.48;2.00;;;;;;;14.17;71.48;99573.59;4973914;28;20038;-64
2021/08/02 07:45:30;;;;;;;12.35;2.00;;;;;;;14.22;70.97;99575.47;4969094;28;20047;-63
2021/08/02 07:47:57;;;;;;;13.27;2.13;;;;;;;14.35;71.38;99582.25;4970239;28;20031;-63
2021/08/02 07:50:23;;;;;;;9.65;1.65;;;;;;;14.59;71.27;99577.06;4970728;28;20050;-63
2021/08/02 07:52:48;;;;;;;10.45;1.95;;;;;;;14.70;71.23;99577.91;4973335;28;20038;-63
2021/08/02 07:55:14;;;;;;;13.52;2.20;;;;;;;14.63;71.04;99578.16;4971897;28;20023;-64
2021/08/02 07:57:41;;;;;;;6.55;1.60;;;;;;;14.69;71.25;99581.69;4975333;28;20046;-63
2021/08/02 08:00:08;;;;;;;10.63;1.98;;;;;;;14.76;70.89;99578.69;4972275;28;21684;-63
2021/08/02 08:02:35;;;;;;;11.48;1.92;;;;;;;14.72;71.42;99578.44;4974209;28;20419;-63
2021/08/02 08:05:01;;;;;;;9.10;2.03;;;;;;;14.66;70.94;99579.50;4974318;28;20125;-63
2021/08/02 08:07:27;;;;;;;9.10;1.70;;;;;;;14.74;71.04;99579.00;4973226;28;20054;-63
2021/08/02 08:09:52;;;;;;;5.97;1.85;;;;;;;14.93;70.79;99579.19;4973468;28;20027;-64
2021/08/02 08:12:18;;;;;;;7.90;1.40;;;;;;;14.98;70.62;99575.66;4972669;28;20118;-63
2021/08/02 08:14:43;;;;;;;10.32;1.95;;;;;;;15.08;69.60;99574.84;4973984;28;20038;-63
2021/08/02 08:17:09;;;;;;;11.93;1.90;;;;;;;15.05;70.20;99581.63;4969056;28;20042;-63
2021/08/02 08:19:34;;;;;;;14.88;1.83;;;;;;;15.14;69.49;99583.75;4973781;28;20035;-64
2021/08/02 08:22:00;;;;;;;7.13;2.00;;;;;;;15.22;68.95;99578.59;4971732;28;20035;-63
2021/08/02 08:24:26;;;;;;;11.48;1.98;;;;;;;15.43;68.45;99577.66;4973825;28;20041;-63
2021/08/02 08:26:52;;;;;;;9.63;1.80;;;;;;;15.66;66.11;99576.19;4972330;28;20035;-64
2021/08/02 08:29:18;;;;;;;4.95;1.92;;;;;;;15.99;66.06;99573.03;4971031;28;20042;-64
2021/08/02 08:31:43;;;;;;;9.38;2.33;;;;;;;16.14;65.68;99581.06;4626538;28;10000556;-64
2021/08/02 08:34:09;;;;;;;9.05;2.00;;;;;;;16.25;64.44;99573.63;4969094;28;20571;-64
2021/08/02 08:36:34;;;;;;;11.32;2.88;;;;;;;16.07;64.78;99578.66;4972947;28;20038;-65
2021/08/02 08:39:00;;;;;;;13.43;3.10;;;;;;;16.02;65.06;99575.97;4955821;28;20026;-64
2021/08/02 08:41:26;;;;;;;11.13;3.03;;;;;;;16.11;65.02;99576.19;4979846;28;20027;-64
2021/08/02 08:43:53;;;;;;;13.80;3.10;;;;;;;16.29;64.96;99576.59;4971435;28;20094;-64
2021/08/02 08:46:21;;;;;;;6.40;1.80;;;;;;;16.61;64.17;99577.94;4971010;28;20035;-65
2021/08/02 08:48:47;;;;;;;11.52;2.15;;;;;;;16.64;64.09;99571.94;4971218;28;20035;-65
2021/08/02 08:51:14;;;;;;;12.48;2.33;;;;;;;16.33;64.08;99567.56;4972378;28;20043;-65
2021/08/02 08:53:42;;;;;;;11.60;2.30;;;;;;;16.23;64.19;99581.25;4972394;28;20041;-65
2021/08/02 08:56:08;;;;;;;7.95;1.83;;;;;;;16.23;64.09;99570.38;4970805;28;20030;-64
2021/08/02 08:58:34;;;;;;;8.85;2.30;;;;;;;16.46;63.75;99578.88;4969737;28;20118;-64
2021/08/02 09:01:01;;;;;;;7.55;2.63;;;;;;;16.57;64.71;99571.44;4968754;28;20105;-64
2021/08/02 09:03:28;;;;;;;16.13;2.65;;;;;;;16.70;64.23;99576.22;4972967;28;20107;-65
2021/08/02 09:06:07;;;;;;;11.00;2.20;;;;;;;16.75;63.17;99573.44;4953988;28;20039;-65
2021/08/02 09:08:44;;;;;;;8.38;2.08;;;;;;;16.76;63.00;99572.34;4964662;28;20050;-64
2021/08/02 09:11:16;;;;;;;8.20;2.20;;;;;;;16.65;63.82;99563.47;4970833;28;20058;-64
2021/08/02 09:13:43;;;;;;;;;;;;;;;17.02;62.55;99561.22;4973050;28;20027;-64
2021/08/02 09:16:25;;;;;;;7.72;2.05;;;;;;;17.07;62.97;99568.50;4970245;28;19918;-64
2021/08/02 09:19:03;;;;;;;7.57;1.90;;;;;;;17.03;62.97;99567.47;4970180;28;20088;-64
2021/08/02 09:21:50;;;;;;;7.55;2.28;;;;;;;17.32;63.34;99566.56;4970159;28;20030;-64
2021/08/02 09:24:34;;;;;;;6.10;1.92;;;;;;;17.60;62.93;99566.75;4971786;28;20110;-65
2021/08/02 09:26:59;;;;;;;9.32;1.90;;;;;;;17.87;62.42;99563.38;4972518;28;20090;-65
2021/08/02 09:29:32;;;;;;;6.10;1.60;;;;;;;17.99;61.15;99560.16;4970676;28;20050;-65
2021/08/02 09:32:00;;;;;;;9.50;2.22;;;;;;;17.81;61.76;99557.16;4964388;28;20154;-63
2021/08/02 09:34:26;;;;;;;9.95;1.65;;;;;;;17.76;60.54;99564.63;4968680;28;20089;-62
2021/08/02 09:36:57;;;;;;;8.52;1.90;;;;;;;17.79;59.75;99559.38;4967001;28;20038;-62
2021/08/02 09:39:31;;;;;;;10.65;1.90;;;;;;;17.95;60.06;99559.16;4968318;28;20074;-62
2021/08/02 09:42:05;;;;;;;5.68;1.75;;;;;;;17.76;59.30;99557.25;4977117;28;20039;-64
2021/08/02 09:44:32;;;;;;;6.43;2.28;;;;;;;17.63;60.61;99555.25;4970158;28;20105;-64
2021/08/02 09:47:04;;;;;;;6.28;1.98;;;;;;;17.40;61.84;99555.03;4968927;28;20030;-63
2021/08/02 09:49:45;;;;;;;11.13;1.67;;;;;;;17.23;62.33;99556.34;4970940;28;20121;-64
2021/08/02 09:52:10;;;;;;;14.25;2.13;;;;;;;17.29;60.45;99554.34;4958569;28;20085;-66
2021/08/02 09:54:36;;;;;;;12.52;2.03;;;;;;;17.27;60.67;99556.53;4967408;28;20030;-66
2021/08/02 09:57:05;;;;;;;10.63;1.90;;;;;;;17.34;61.18;99557.00;4970531;28;20027;-66
2021/08/02 09:59:31;;;;;;;5.93;1.58;;;;;;;17.46;61.95;99551.13;4964141;28;20047;-66
2021/08/02 10:01:58;;;;;;;5.55;1.60;;;;;;;17.45;61.84;99559.59;4957207;28;20069;-66
2021/08/02 10:04:24;;;;;;;9.15;2.15;;;;;;;17.50;60.27;99560.34;4968972;28;20027;-65
2021/08/02 10:06:50;;;;;;;20.48;2.20;;;;;;;17.64;60.29;99562.31;4970724;28;20142;-65
2021/08/02 10:09:16;;;;;;;6.18;1.60;;;;;;;17.66;61.02;99558.19;4969989;28;20134;-66
2021/08/02 10:11:41;;;;;;;10.23;1.70;;;;;;;17.62;59.82;99557.16;4969603;28;20126;-66
2021/08/02 10:14:10;;;;;;;4.75;1.92;;;;;;;17.45;60.31;99562.31;4970653;28;20103;-66
2021/08/02 10:16:39;;;;;;;12.27;2.15;;;;;;;17.23;59.33;99550.91;4969717;28;20034;-66
2021/08/02 10:19:07;;;;;;;14.32;2.20;;;;;;;17.23;60.01;99561.78;4966939;28;20039;-66
2021/08/02 10:21:47;;;;;;;9.45;1.80;;;;;;;17.37;59.86;99555.63;4967153;28;20082;-66
2021/08/02 10:24:17;;;;;;;10.43;1.85;;;;;;;17.24;59.57;99552.50;4967251;28;20046;-64
2021/08/02 10:26:59;;;;;;;9.60;1.80;;;;;;;17.14;61.06;99549.09;4966836;28;20058;-66
2021/08/02 10:29:36;;;;;;;8.90;1.50;;;;;;;17.15;60.51;99553.44;4965563;28;20120;-67
2021/08/02 10:32:02;;;;;;;6.93;1.85;;;;;;;17.33;60.48;99546.41;4925947;29;20043;-66
2021/08/02 10:34:28;;;;;;;8.35;1.70;;;;;;;17.36;60.66;99545.84;4960092;28;20384;-67
2021/08/02 10:37:04;;;;;;;6.13;1.90;;;;;;;17.45;60.20;99540.53;4967633;28;20408;-67
2021/08/02 10:39:34;;;;;;;7.28;1.50;;;;;;;17.64;60.38;99533.16;4964319;28;20042;-66
2021/08/02 10:42:08;;;;;;;7.72;1.60;;;;;;;17.65;59.43;99536.72;4967026;28;20043;-67
2021/08/02 10:44:35;;;;;;;13.93;1.65;;;;;;;17.94;58.41;99539.28;4963887;28;20081;-65
2021/08/02 10:47:03;;;;;;;8.75;1.38;;;;;;;17.89;58.17;99533.91;4963841;28;20050;-65
2021/08/02 10:49:29;;;;;;;6.80;1.50;;;;;;;17.84;55.62;99536.72;4966438;28;20056;-66
2021/08/02 10:51:55;;;;;;;5.63;1.70;;;;;;;18.01;57.36;99538.91;4965565;28;20512;-66
2021/08/02 10:54:22;;;;;;;5.05;1.40;;;;;;;18.12;54.55;99537.63;4966198;28;20546;-66
2021/08/02 10:56:48;;;;;;;7.45;1.52;;;;;;;18.27;55.34;99535.75;4964054;28;20063;-67
2021/08/02 10:59:21;;;;;;;8.18;1.55;;;;;;;17.92;56.24;99535.22;4967188;28;20481;-66
2021/08/02 11:01:52;;;;;;;4.68;1.40;;;;;;;18.18;54.67;99543.00;4965280;28;20081;-66
2021/08/02 11:04:21;;;;;;;6.68;1.70;;;;;;;18.47;55.61;99536.50;4965938;28;20062;-67
2021/08/02 11:06:48;;;;;;;5.82;1.23;;;;;;;18.71;52.22;99547.25;4965569;28;20493;-64
2021/08/02 11:09:14;;;;;;;4.40;1.30;;;;;;;18.84;50.43;99548.38;4970444;28;20046;-63
2021/08/02 11:11:40;;;;;;;2.25;0.88;;;;;;;18.95;44.21;99546.25;4967569;28;20050;-66
2021/08/02 11:14:12;;;;;;;4.72;1.30;;;;;;;18.95;46.34;99543.53;4970477;28;20035;-66
2021/08/02 11:16:38;;;;;;;4.85;1.50;;;;;;;19.24;46.95;99543.22;4965540;28;20035;-66
2021/08/02 11:19:13;;;;;;;4.63;1.17;;;;;;;19.47;45.57;99551.47;4969352;28;20031;-66
2021/08/02 11:21:39;;;;;;;6.22;1.40;;;;;;;19.31;47.38;99540.06;4969476;28;20074;-66
2021/08/02 11:24:11;;;;;;;7.90;1.50;;;;;;;19.25;47.28;99546.75;4969586;28;20027;-67
2021/08/02 11:27:10;;;;;;;7.00;1.33;;;;;;;19.33;46.64;99540.56;4964458;28;20046;-66
2021/08/02 11:29:36;;;;;;;3.47;1.20;;;;;;;19.53;44.30;99544.78;4955546;28;20089;-66
2021/08/02 11:32:04;;;;;;;4.45;1.08;;;;;;;19.30;44.88;99547.47;4973059;28;20026;-66
2021/08/02 11:34:31;;;;;;;7.63;1.35;;;;;;;19.37;45.33;99548.97;4974008;28;20472;-66
2021/08/02 11:36:57;;;;;;;5.57;1.50;;;;;;;19.25;45.78;99553.03;4981519;28;20468;-66